sensor_id;sensor_type;location;lat;lon;timestamp;P1;durP1;ratioP1;P2;durP2;ratioP2
17773;SDS011;9011;33.236;-97.118;2022-08-04T00:00:55;2.25;;;1.42;;
17773;SDS011;9011;33.236;-97.118;2022-08-04T00:03:32;5.65;;;1.77;;
17773;SDS011;9011;33.236;-97.118;2022-08-04T00:06:09;6.30;;;1.67;;
17773;SDS011;9011;33.236;-97.118;2022-08-04T00:08:45;4.53;;;1.33;;
17773;SDS011;9011;33.236;-97.118;2022-08-04T00:11:19;2.65;;;1.70;;
17773;SDS011;9011;33.236;-97.118;2022-08-04T00:13:53;3.60;;;1.83;;
17773;SDS011;9011;33.236;-97.118;2022-08-04T00:16:24;4.53;;;1.52;;
17773;SDS011;9011;33.236;-97.118;2022-08-04T00:18:56;3.13;;;1.45;;
17773;SDS011;9011;33.236;-97.118;2022-08-04T00:21:30;5.25;;;1.48;;
17773;SDS011;9011;33.236;-97.118;2022-08-04T00:24:04;3.25;;;1.40;;
17773;SDS011;9011;33.236;-97.118;2022-08-04T00:26:33;3.92;;;1.55;;
17773;SDS011;9011;33.236;-97.118;2022-08-04T00:29:02;4.35;;;1.40;;
17773;SDS011;9011;33.236;-97.118;2022-08-04T00:31:32;2.85;;;1.15;;
17773;SDS011;9011;33.236;-97.118;2022-08-04T00:34:00;4.15;;;1.88;;
17773;SDS011;9011;33.236;-97.118;2022-08-04T00:36:30;3.05;;;1.20;;
17773;SDS011;9011;33.236;-97.118;2022-08-04T00:38:59;5.78;;;1.45;;
17773;SDS011;9011;33.236;-97.118;2022-08-04T00:41:36;5.20;;;1.27;;
17773;SDS011;9011;33.236;-97.118;2022-08-04T00:44:16;5.50;;;1.50;;
17773;SDS011;9011;33.236;-97.118;2022-08-04T00:46:59;6.13;;;2.00;;
17773;SDS011;9011;33.236;-97.118;2022-08-04T00:49:49;4.97;;;1.20;;
17773;SDS011;9011;33.236;-97.118;2022-08-04T00:52:53;2.90;;;1.83;;
17773;SDS011;9011;33.236;-97.118;2022-08-04T00:55:49;3.47;;;1.40;;
17773;SDS011;9011;33.236;-97.118;2022-08-04T00:58:49;8.77;;;1.40;;
17773;SDS011;9011;33.236;-97.118;2022-08-04T01:01:33;6.05;;;1.55;;
17773;SDS011;9011;33.236;-97.118;2022-08-04T01:04:14;5.30;;;1.58;;
17773;SDS011;9011;33.236;-97.118;2022-08-04T01:06:55;5.70;;;1.50;;
17773;SDS011;9011;33.236;-97.118;2022-08-04T01:09:39;6.47;;;1.92;;
17773;SDS011;9011;33.236;-97.118;2022-08-04T01:15:13;3.53;;;1.63;;
17773;SDS011;9011;33.236;-97.118;2022-08-04T01:17:52;2.70;;;1.60;;
17773;SDS011;9011;33.236;-97.118;2022-08-04T01:20:29;5.00;;;1.60;;
17773;SDS011;9011;33.236;-97.118;2022-08-04T01:23:20;3.95;;;1.65;;
17773;SDS011;9011;33.236;-97.118;2022-08-04T01:26:26;4.85;;;1.55;;
17773;SDS011;9011;33.236;-97.118;2022-08-04T01:29:21;3.78;;;1.27;;
17773;SDS011;9011;33.236;-97.118;2022-08-04T01:31:59;3.33;;;1.60;;
17773;SDS011;9011;33.236;-97.118;2022-08-04T01:34:33;3.67;;;1.50;;
17773;SDS011;9011;33.236;-97.118;2022-08-04T01:37:10;8.57;;;2.13;;
17773;SDS011;9011;33.236;-97.118;2022-08-04T01:39:49;5.88;;;1.63;;
17773;SDS011;9011;33.236;-97.118;2022-08-04T01:42:26;2.20;;;1.50;;
17773;SDS011;9011;33.236;-97.118;2022-08-04T01:45:02;3.55;;;1.40;;
17773;SDS011;9011;33.236;-97.118;2022-08-04T01:47:33;5.93;;;1.60;;
17773;SDS011;9011;33.236;-97.118;2022-08-04T01:50:04;8.57;;;1.73;;
17773;SDS011;9011;33.236;-97.118;2022-08-04T01:52:35;4.10;;;1.55;;
17773;SDS011;9011;33.236;-97.118;2022-08-04T01:55:07;5.75;;;1.90;;
17773;SDS011;9011;33.236;-97.118;2022-08-04T01:57:37;3.50;;;1.63;;
17773;SDS011;9011;33.236;-97.118;2022-08-04T02:00:12;3.97;;;1.15;;
17773;SDS011;9011;33.236;-97.118;2022-08-04T02:02:43;4.97;;;1.25;;
17773;SDS011;9011;33.236;-97.118;2022-08-04T02:05:11;7.32;;;1.70;;
17773;SDS011;9011;33.236;-97.118;2022-08-04T02:07:46;5.60;;;1.60;;
17773;SDS011;9011;33.236;-97.118;2022-08-04T02:10:26;3.30;;;1.70;;
17773;SDS011;9011;33.236;-97.118;2022-08-04T02:13:07;4.93;;;1.75;;
17773;SDS011;9011;33.236;-97.118;2022-08-04T02:15:46;6.28;;;1.73;;
17773;SDS011;9011;33.236;-97.118;2022-08-04T02:18:26;3.03;;;1.63;;
17773;SDS011;9011;33.236;-97.118;2022-08-04T02:20:58;2.95;;;1.40;;
17773;SDS011;9011;33.236;-97.118;2022-08-04T02:23:28;6.00;;;1.50;;
17773;SDS011;9011;33.236;-97.118;2022-08-04T02:26:02;4.88;;;1.88;;
17773;SDS011;9011;33.236;-97.118;2022-08-04T02:28:35;3.40;;;1.42;;
17773;SDS011;9011;33.236;-97.118;2022-08-04T02:31:21;5.78;;;1.88;;
17773;SDS011;9011;33.236;-97.118;2022-08-04T02:33:58;4.45;;;1.67;;
17773;SDS011;9011;33.236;-97.118;2022-08-04T02:36:34;3.95;;;1.45;;
17773;SDS011;9011;33.236;-97.118;2022-08-04T02:39:04;5.65;;;1.75;;
17773;SDS011;9011;33.236;-97.118;2022-08-04T02:41:33;4.38;;;1.70;;
17773;SDS011;9011;33.236;-97.118;2022-08-04T02:44:03;4.57;;;1.90;;
17773;SDS011;9011;33.236;-97.118;2022-08-04T02:46:35;6.70;;;2.20;;
17773;SDS011;9011;33.236;-97.118;2022-08-04T02:49:05;5.10;;;2.20;;
17773;SDS011;9011;33.236;-97.118;2022-08-04T02:51:35;6.07;;;1.70;;
17773;SDS011;9011;33.236;-97.118;2022-08-04T02:54:06;4.30;;;1.80;;
17773;SDS011;9011;33.236;-97.118;2022-08-04T02:56:35;5.13;;;1.70;;
17773;SDS011;9011;33.236;-97.118;2022-08-04T02:59:05;4.97;;;1.85;;
17773;SDS011;9011;33.236;-97.118;2022-08-04T03:01:38;6.70;;;2.28;;
17773;SDS011;9011;33.236;-97.118;2022-08-04T03:04:11;5.63;;;2.03;;
17773;SDS011;9011;33.236;-97.118;2022-08-04T03:06:52;5.55;;;2.10;;
17773;SDS011;9011;33.236;-97.118;2022-08-04T03:15:57;5.20;;;2.00;;
17773;SDS011;9011;33.236;-97.118;2022-08-04T03:21:48;5.20;;;1.80;;
17773;SDS011;9011;33.236;-97.118;2022-08-04T03:24:35;8.10;;;2.55;;
17773;SDS011;9011;33.236;-97.118;2022-08-04T03:27:36;3.15;;;2.15;;
17773;SDS011;9011;33.236;-97.118;2022-08-04T03:30:34;3.75;;;2.10;;
17773;SDS011;9011;33.236;-97.118;2022-08-04T03:33:34;5.28;;;2.33;;
17773;SDS011;9011;33.236;-97.118;2022-08-04T03:39:45;7.05;;;2.25;;
17773;SDS011;9011;33.236;-97.118;2022-08-04T03:42:43;5.88;;;2.20;;
17773;SDS011;9011;33.236;-97.118;2022-08-04T03:45:48;8.35;;;2.40;;
17773;SDS011;9011;33.236;-97.118;2022-08-04T03:51:37;5.63;;;1.98;;
17773;SDS011;9011;33.236;-97.118;2022-08-04T03:54:37;7.15;;;2.42;;
17773;SDS011;9011;33.236;-97.118;2022-08-04T03:57:35;6.65;;;2.00;;
17773;SDS011;9011;33.236;-97.118;2022-08-04T04:00:14;4.07;;;2.13;;
17773;SDS011;9011;33.236;-97.118;2022-08-04T04:02:58;4.63;;;1.95;;
17773;SDS011;9011;33.236;-97.118;2022-08-04T04:05:56;5.10;;;1.95;;
17773;SDS011;9011;33.236;-97.118;2022-08-04T04:08:45;6.35;;;2.40;;
17773;SDS011;9011;33.236;-97.118;2022-08-04T04:11:39;5.45;;;2.30;;
17773;SDS011;9011;33.236;-97.118;2022-08-04T04:14:40;5.45;;;2.15;;
17773;SDS011;9011;33.236;-97.118;2022-08-04T04:17:30;5.03;;;2.53;;
17773;SDS011;9011;33.236;-97.118;2022-08-04T04:20:24;4.72;;;1.95;;
17773;SDS011;9011;33.236;-97.118;2022-08-04T04:23:06;5.75;;;2.40;;
17773;SDS011;9011;33.236;-97.118;2022-08-04T04:25:54;7.47;;;2.47;;
17773;SDS011;9011;33.236;-97.118;2022-08-04T04:28:42;5.63;;;2.72;;
17773;SDS011;9011;33.236;-97.118;2022-08-04T04:31:26;4.85;;;2.55;;
17773;SDS011;9011;33.236;-97.118;2022-08-04T04:34:04;6.38;;;2.03;;
17773;SDS011;9011;33.236;-97.118;2022-08-04T04:36:52;6.00;;;2.47;;
17773;SDS011;9011;33.236;-97.118;2022-08-04T04:39:37;6.07;;;2.42;;
17773;SDS011;9011;33.236;-97.118;2022-08-04T04:42:21;7.13;;;2.38;;
17773;SDS011;9011;33.236;-97.118;2022-08-04T04:45:14;4.70;;;2.05;;
17773;SDS011;9011;33.236;-97.118;2022-08-04T04:47:52;6.07;;;2.90;;
17773;SDS011;9011;33.236;-97.118;2022-08-04T04:50:25;4.50;;;2.40;;
17773;SDS011;9011;33.236;-97.118;2022-08-04T04:53:05;8.27;;;2.30;;
17773;SDS011;9011;33.236;-97.118;2022-08-04T04:55:41;7.00;;;2.03;;
17773;SDS011;9011;33.236;-97.118;2022-08-04T04:58:14;5.05;;;2.30;;
17773;SDS011;9011;33.236;-97.118;2022-08-04T05:04:06;5.80;;;1.92;;
17773;SDS011;9011;33.236;-97.118;2022-08-04T05:07:00;5.55;;;2.30;;
17773;SDS011;9011;33.236;-97.118;2022-08-04T05:09:51;6.72;;;2.03;;
17773;SDS011;9011;33.236;-97.118;2022-08-04T05:12:33;8.48;;;2.70;;
17773;SDS011;9011;33.236;-97.118;2022-08-04T05:15:11;6.68;;;1.70;;
17773;SDS011;9011;33.236;-97.118;2022-08-04T05:17:44;5.00;;;1.85;;
17773;SDS011;9011;33.236;-97.118;2022-08-04T05:20:21;7.97;;;2.35;;
17773;SDS011;9011;33.236;-97.118;2022-08-04T05:22:54;6.90;;;1.83;;
17773;SDS011;9011;33.236;-97.118;2022-08-04T05:25:27;7.35;;;2.08;;
17773;SDS011;9011;33.236;-97.118;2022-08-04T05:28:01;6.75;;;1.98;;
17773;SDS011;9011;33.236;-97.118;2022-08-04T05:30:32;5.22;;;1.73;;
17773;SDS011;9011;33.236;-97.118;2022-08-04T05:33:13;7.00;;;2.25;;
17773;SDS011;9011;33.236;-97.118;2022-08-04T05:35:45;5.40;;;1.92;;
17773;SDS011;9011;33.236;-97.118;2022-08-04T05:38:19;6.22;;;1.92;;
17773;SDS011;9011;33.236;-97.118;2022-08-04T05:40:49;4.72;;;1.70;;
17773;SDS011;9011;33.236;-97.118;2022-08-04T05:43:18;6.50;;;1.88;;
17773;SDS011;9011;33.236;-97.118;2022-08-04T05:45:48;8.10;;;1.80;;
17773;SDS011;9011;33.236;-97.118;2022-08-04T05:48:18;6.03;;;2.20;;
17773;SDS011;9011;33.236;-97.118;2022-08-04T05:50:48;6.22;;;1.85;;
17773;SDS011;9011;33.236;-97.118;2022-08-04T05:53:17;6.53;;;1.83;;
17773;SDS011;9011;33.236;-97.118;2022-08-04T05:55:46;6.07;;;2.28;;
17773;SDS011;9011;33.236;-97.118;2022-08-04T05:58:16;4.90;;;1.63;;
17773;SDS011;9011;33.236;-97.118;2022-08-04T06:00:45;6.95;;;2.40;;
17773;SDS011;9011;33.236;-97.118;2022-08-04T06:03:16;4.28;;;2.05;;
17773;SDS011;9011;33.236;-97.118;2022-08-04T06:05:48;7.40;;;2.55;;
17773;SDS011;9011;33.236;-97.118;2022-08-04T06:08:17;5.55;;;1.60;;
17773;SDS011;9011;33.236;-97.118;2022-08-04T06:10:46;6.82;;;2.00;;
17773;SDS011;9011;33.236;-97.118;2022-08-04T06:13:17;5.50;;;2.15;;
17773;SDS011;9011;33.236;-97.118;2022-08-04T06:15:52;5.18;;;2.08;;
17773;SDS011;9011;33.236;-97.118;2022-08-04T06:18:22;6.35;;;2.10;;
17773;SDS011;9011;33.236;-97.118;2022-08-04T06:20:56;7.20;;;1.90;;
17773;SDS011;9011;33.236;-97.118;2022-08-04T06:23:28;6.57;;;2.40;;
17773;SDS011;9011;33.236;-97.118;2022-08-04T06:25:59;5.75;;;2.25;;
17773;SDS011;9011;33.236;-97.118;2022-08-04T06:28:28;9.35;;;2.00;;
17773;SDS011;9011;33.236;-97.118;2022-08-04T06:30:57;7.63;;;1.95;;
17773;SDS011;9011;33.236;-97.118;2022-08-04T06:33:28;5.05;;;2.20;;
17773;SDS011;9011;33.236;-97.118;2022-08-04T06:36:02;6.93;;;2.05;;
17773;SDS011;9011;33.236;-97.118;2022-08-04T06:38:32;5.93;;;1.90;;
17773;SDS011;9011;33.236;-97.118;2022-08-04T06:41:01;6.47;;;2.08;;
17773;SDS011;9011;33.236;-97.118;2022-08-04T06:43:33;8.85;;;2.05;;
17773;SDS011;9011;33.236;-97.118;2022-08-04T06:46:04;5.60;;;2.15;;
17773;SDS011;9011;33.236;-97.118;2022-08-04T06:48:34;6.72;;;2.15;;
17773;SDS011;9011;33.236;-97.118;2022-08-04T06:51:04;6.82;;;2.60;;
17773;SDS011;9011;33.236;-97.118;2022-08-04T06:53:33;7.90;;;2.03;;
17773;SDS011;9011;33.236;-97.118;2022-08-04T06:56:01;9.65;;;2.55;;
17773;SDS011;9011;33.236;-97.118;2022-08-04T06:58:31;5.05;;;2.20;;
17773;SDS011;9011;33.236;-97.118;2022-08-04T07:01:00;6.03;;;2.50;;
17773;SDS011;9011;33.236;-97.118;2022-08-04T07:03:29;8.32;;;2.30;;
17773;SDS011;9011;33.236;-97.118;2022-08-04T07:05:58;6.72;;;2.42;;
17773;SDS011;9011;33.236;-97.118;2022-08-04T07:08:28;9.23;;;2.85;;
17773;SDS011;9011;33.236;-97.118;2022-08-04T07:10:57;8.85;;;2.10;;
17773;SDS011;9011;33.236;-97.118;2022-08-04T07:13:26;13.57;;;2.65;;
17773;SDS011;9011;33.236;-97.118;2022-08-04T07:15:57;5.20;;;2.42;;
17773;SDS011;9011;33.236;-97.118;2022-08-04T07:18:26;7.82;;;2.05;;
17773;SDS011;9011;33.236;-97.118;2022-08-04T07:20:56;8.43;;;2.25;;
17773;SDS011;9011;33.236;-97.118;2022-08-04T07:23:25;10.88;;;2.75;;
17773;SDS011;9011;33.236;-97.118;2022-08-04T07:25:56;7.05;;;2.08;;
17773;SDS011;9011;33.236;-97.118;2022-08-04T07:28:25;6.90;;;1.77;;
17773;SDS011;9011;33.236;-97.118;2022-08-04T07:30:56;5.47;;;1.88;;
17773;SDS011;9011;33.236;-97.118;2022-08-04T07:33:25;7.80;;;2.75;;
17773;SDS011;9011;33.236;-97.118;2022-08-04T07:35:54;10.80;;;2.28;;
17773;SDS011;9011;33.236;-97.118;2022-08-04T07:38:23;6.43;;;1.98;;
17773;SDS011;9011;33.236;-97.118;2022-08-04T07:40:51;7.00;;;2.40;;
17773;SDS011;9011;33.236;-97.118;2022-08-04T07:43:21;8.73;;;2.63;;
17773;SDS011;9011;33.236;-97.118;2022-08-04T07:45:52;6.35;;;2.28;;
17773;SDS011;9011;33.236;-97.118;2022-08-04T07:48:20;10.45;;;2.70;;
17773;SDS011;9011;33.236;-97.118;2022-08-04T07:50:48;9.65;;;2.88;;
17773;SDS011;9011;33.236;-97.118;2022-08-04T07:53:17;10.75;;;2.63;;
17773;SDS011;9011;33.236;-97.118;2022-08-04T07:55:47;9.98;;;2.40;;
17773;SDS011;9011;33.236;-97.118;2022-08-04T07:58:16;11.75;;;3.53;;
17773;SDS011;9011;33.236;-97.118;2022-08-04T08:00:46;7.07;;;2.08;;
17773;SDS011;9011;33.236;-97.118;2022-08-04T08:03:14;10.40;;;2.65;;
17773;SDS011;9011;33.236;-97.118;2022-08-04T08:05:44;9.23;;;2.75;;
17773;SDS011;9011;33.236;-97.118;2022-08-04T08:08:12;6.30;;;1.90;;
17773;SDS011;9011;33.236;-97.118;2022-08-04T08:10:44;6.07;;;2.30;;
17773;SDS011;9011;33.236;-97.118;2022-08-04T08:13:14;6.53;;;2.63;;
17773;SDS011;9011;33.236;-97.118;2022-08-04T08:15:43;7.70;;;2.60;;
17773;SDS011;9011;33.236;-97.118;2022-08-04T08:18:14;8.82;;;2.58;;
17773;SDS011;9011;33.236;-97.118;2022-08-04T08:20:43;6.53;;;2.40;;
17773;SDS011;9011;33.236;-97.118;2022-08-04T08:23:12;6.55;;;2.40;;
17773;SDS011;9011;33.236;-97.118;2022-08-04T08:25:40;8.68;;;2.65;;
17773;SDS011;9011;33.236;-97.118;2022-08-04T08:28:08;11.35;;;2.85;;
17773;SDS011;9011;33.236;-97.118;2022-08-04T08:30:37;10.95;;;2.72;;
17773;SDS011;9011;33.236;-97.118;2022-08-04T08:33:07;5.55;;;2.88;;
17773;SDS011;9011;33.236;-97.118;2022-08-04T08:35:44;8.65;;;2.65;;
17773;SDS011;9011;33.236;-97.118;2022-08-04T08:38:24;9.82;;;2.78;;
17773;SDS011;9011;33.236;-97.118;2022-08-04T08:41:17;7.25;;;2.20;;
17773;SDS011;9011;33.236;-97.118;2022-08-04T08:44:20;6.13;;;2.28;;
17773;SDS011;9011;33.236;-97.118;2022-08-04T08:47:18;12.20;;;2.50;;
17773;SDS011;9011;33.236;-97.118;2022-08-04T08:50:07;8.90;;;3.00;;
17773;SDS011;9011;33.236;-97.118;2022-08-04T08:52:58;11.00;;;3.35;;
17773;SDS011;9011;33.236;-97.118;2022-08-04T08:55:41;8.82;;;2.40;;
17773;SDS011;9011;33.236;-97.118;2022-08-04T08:58:23;8.25;;;2.22;;
17773;SDS011;9011;33.236;-97.118;2022-08-04T09:01:03;11.90;;;3.15;;
17773;SDS011;9011;33.236;-97.118;2022-08-04T09:06:52;10.40;;;2.72;;
17773;SDS011;9011;33.236;-97.118;2022-08-04T09:12:29;10.55;;;2.70;;
17773;SDS011;9011;33.236;-97.118;2022-08-04T09:15:05;8.13;;;3.10;;
17773;SDS011;9011;33.236;-97.118;2022-08-04T09:17:40;8.07;;;2.97;;
17773;SDS011;9011;33.236;-97.118;2022-08-04T09:20:16;6.40;;;2.20;;
17773;SDS011;9011;33.236;-97.118;2022-08-04T09:22:53;7.80;;;2.10;;
17773;SDS011;9011;33.236;-97.118;2022-08-04T09:25:33;10.65;;;2.97;;
17773;SDS011;9011;33.236;-97.118;2022-08-04T09:28:09;10.20;;;2.60;;
17773;SDS011;9011;33.236;-97.118;2022-08-04T09:30:48;8.23;;;2.75;;
17773;SDS011;9011;33.236;-97.118;2022-08-04T09:33:26;13.35;;;3.38;;
17773;SDS011;9011;33.236;-97.118;2022-08-04T09:36:02;6.82;;;2.63;;
17773;SDS011;9011;33.236;-97.118;2022-08-04T09:38:41;7.75;;;2.47;;
17773;SDS011;9011;33.236;-97.118;2022-08-04T09:41:19;9.98;;;3.30;;
17773;SDS011;9011;33.236;-97.118;2022-08-04T09:43:59;6.53;;;2.80;;
17773;SDS011;9011;33.236;-97.118;2022-08-04T09:46:39;12.00;;;3.28;;
17773;SDS011;9011;33.236;-97.118;2022-08-04T09:49:13;9.80;;;2.55;;
17773;SDS011;9011;33.236;-97.118;2022-08-04T09:51:48;9.05;;;2.50;;
17773;SDS011;9011;33.236;-97.118;2022-08-04T09:54:31;10.80;;;2.67;;
17773;SDS011;9011;33.236;-97.118;2022-08-04T09:57:09;12.23;;;2.95;;
17773;SDS011;9011;33.236;-97.118;2022-08-04T09:59:48;7.80;;;2.95;;
17773;SDS011;9011;33.236;-97.118;2022-08-04T10:02:24;9.32;;;3.13;;
17773;SDS011;9011;33.236;-97.118;2022-08-04T10:04:56;13.77;;;2.78;;
17773;SDS011;9011;33.236;-97.118;2022-08-04T10:07:31;5.47;;;2.40;;
17773;SDS011;9011;33.236;-97.118;2022-08-04T10:10:16;10.25;;;2.90;;
17773;SDS011;9011;33.236;-97.118;2022-08-04T10:13:05;11.07;;;2.70;;
17773;SDS011;9011;33.236;-97.118;2022-08-04T10:15:47;6.95;;;2.72;;
17773;SDS011;9011;33.236;-97.118;2022-08-04T10:18:29;13.15;;;3.05;;
17773;SDS011;9011;33.236;-97.118;2022-08-04T10:21:12;9.52;;;2.53;;
17773;SDS011;9011;33.236;-97.118;2022-08-04T10:23:58;14.52;;;3.60;;
17773;SDS011;9011;33.236;-97.118;2022-08-04T10:26:44;7.53;;;2.72;;
17773;SDS011;9011;33.236;-97.118;2022-08-04T10:29:18;11.10;;;2.75;;
17773;SDS011;9011;33.236;-97.118;2022-08-04T10:31:53;7.95;;;2.75;;
17773;SDS011;9011;33.236;-97.118;2022-08-04T10:34:26;9.07;;;2.95;;
17773;SDS011;9011;33.236;-97.118;2022-08-04T10:37:03;18.05;;;3.92;;
17773;SDS011;9011;33.236;-97.118;2022-08-04T10:39:42;9.80;;;2.75;;
17773;SDS011;9011;33.236;-97.118;2022-08-04T10:42:34;8.80;;;3.03;;
17773;SDS011;9011;33.236;-97.118;2022-08-04T10:45:09;8.40;;;2.72;;
17773;SDS011;9011;33.236;-97.118;2022-08-04T10:47:55;12.30;;;3.35;;
17773;SDS011;9011;33.236;-97.118;2022-08-04T10:50:28;9.88;;;2.75;;
17773;SDS011;9011;33.236;-97.118;2022-08-04T10:53:02;11.25;;;2.70;;
17773;SDS011;9011;33.236;-97.118;2022-08-04T10:55:35;11.43;;;3.00;;
17773;SDS011;9011;33.236;-97.118;2022-08-04T10:58:11;9.68;;;3.28;;
17773;SDS011;9011;33.236;-97.118;2022-08-04T11:00:45;9.73;;;3.50;;
17773;SDS011;9011;33.236;-97.118;2022-08-04T11:03:19;8.80;;;3.03;;
17773;SDS011;9011;33.236;-97.118;2022-08-04T11:05:52;8.88;;;3.70;;
17773;SDS011;9011;33.236;-97.118;2022-08-04T11:08:22;8.70;;;2.97;;
17773;SDS011;9011;33.236;-97.118;2022-08-04T11:10:56;9.30;;;2.97;;
17773;SDS011;9011;33.236;-97.118;2022-08-04T11:13:31;10.65;;;2.92;;
17773;SDS011;9011;33.236;-97.118;2022-08-04T11:16:04;8.85;;;3.20;;
17773;SDS011;9011;33.236;-97.118;2022-08-04T11:18:41;9.18;;;3.28;;
17773;SDS011;9011;33.236;-97.118;2022-08-04T11:21:18;139.93;;;12.05;;
17773;SDS011;9011;33.236;-97.118;2022-08-04T11:23:53;14.95;;;3.78;;
17773;SDS011;9011;33.236;-97.118;2022-08-04T11:26:30;8.48;;;3.28;;
17773;SDS011;9011;33.236;-97.118;2022-08-04T11:29:07;12.73;;;3.53;;
17773;SDS011;9011;33.236;-97.118;2022-08-04T11:31:42;5.57;;;2.40;;
17773;SDS011;9011;33.236;-97.118;2022-08-04T11:34:17;5.85;;;2.72;;
17773;SDS011;9011;33.236;-97.118;2022-08-04T11:36:48;10.27;;;3.30;;
17773;SDS011;9011;33.236;-97.118;2022-08-04T11:39:24;12.57;;;3.47;;
17773;SDS011;9011;33.236;-97.118;2022-08-04T11:41:56;9.90;;;4.43;;
17773;SDS011;9011;33.236;-97.118;2022-08-04T11:44:33;9.15;;;3.17;;
17773;SDS011;9011;33.236;-97.118;2022-08-04T11:47:08;10.50;;;3.72;;
17773;SDS011;9011;33.236;-97.118;2022-08-04T11:49:45;11.15;;;4.45;;
17773;SDS011;9011;33.236;-97.118;2022-08-04T11:52:18;7.68;;;3.67;;
17773;SDS011;9011;33.236;-97.118;2022-08-04T11:54:48;12.23;;;3.42;;
17773;SDS011;9011;33.236;-97.118;2022-08-04T11:57:17;9.02;;;3.13;;
17773;SDS011;9011;33.236;-97.118;2022-08-04T11:59:47;10.95;;;3.35;;
17773;SDS011;9011;33.236;-97.118;2022-08-04T12:02:28;10.63;;;3.25;;
17773;SDS011;9011;33.236;-97.118;2022-08-04T12:05:07;10.77;;;3.67;;
17773;SDS011;9011;33.236;-97.118;2022-08-04T12:07:42;7.00;;;3.10;;
17773;SDS011;9011;33.236;-97.118;2022-08-04T12:10:20;10.02;;;3.58;;
17773;SDS011;9011;33.236;-97.118;2022-08-04T12:12:59;13.77;;;3.83;;
17773;SDS011;9011;33.236;-97.118;2022-08-04T12:15:39;10.10;;;3.03;;
17773;SDS011;9011;33.236;-97.118;2022-08-04T12:18:19;7.32;;;3.00;;
17773;SDS011;9011;33.236;-97.118;2022-08-04T12:20:51;14.40;;;3.88;;
17773;SDS011;9011;33.236;-97.118;2022-08-04T12:23:26;11.38;;;3.30;;
17773;SDS011;9011;33.236;-97.118;2022-08-04T12:26:01;13.57;;;3.47;;
17773;SDS011;9011;33.236;-97.118;2022-08-04T12:28:32;8.50;;;2.90;;
17773;SDS011;9011;33.236;-97.118;2022-08-04T12:31:06;9.00;;;3.72;;
17773;SDS011;9011;33.236;-97.118;2022-08-04T12:33:44;10.77;;;3.40;;
17773;SDS011;9011;33.236;-97.118;2022-08-04T12:36:18;12.02;;;3.78;;
17773;SDS011;9011;33.236;-97.118;2022-08-04T12:38:53;7.97;;;2.80;;
17773;SDS011;9011;33.236;-97.118;2022-08-04T12:41:31;12.43;;;4.53;;
17773;SDS011;9011;33.236;-97.118;2022-08-04T12:44:11;12.90;;;3.40;;
17773;SDS011;9011;33.236;-97.118;2022-08-04T12:46:43;21.23;;;4.32;;
17773;SDS011;9011;33.236;-97.118;2022-08-04T12:49:13;12.85;;;3.63;;
17773;SDS011;9011;33.236;-97.118;2022-08-04T12:51:43;8.70;;;3.72;;
17773;SDS011;9011;33.236;-97.118;2022-08-04T12:54:12;13.82;;;3.97;;
17773;SDS011;9011;33.236;-97.118;2022-08-04T12:56:49;11.75;;;4.18;;
17773;SDS011;9011;33.236;-97.118;2022-08-04T12:59:18;11.15;;;3.53;;
17773;SDS011;9011;33.236;-97.118;2022-08-04T13:01:48;16.00;;;4.20;;
17773;SDS011;9011;33.236;-97.118;2022-08-04T13:04:19;11.55;;;3.72;;
17773;SDS011;9011;33.236;-97.118;2022-08-04T13:06:51;14.90;;;4.18;;
17773;SDS011;9011;33.236;-97.118;2022-08-04T13:09:25;8.60;;;4.22;;
17773;SDS011;9011;33.236;-97.118;2022-08-04T13:11:58;13.00;;;3.95;;
17773;SDS011;9011;33.236;-97.118;2022-08-04T13:14:30;12.85;;;3.60;;
17773;SDS011;9011;33.236;-97.118;2022-08-04T13:17:03;9.52;;;3.20;;
17773;SDS011;9011;33.236;-97.118;2022-08-04T13:19:32;12.32;;;4.07;;
17773;SDS011;9011;33.236;-97.118;2022-08-04T13:22:02;11.68;;;3.55;;
17773;SDS011;9011;33.236;-97.118;2022-08-04T13:24:31;9.45;;;3.30;;
17773;SDS011;9011;33.236;-97.118;2022-08-04T13:27:02;13.65;;;3.80;;
17773;SDS011;9011;33.236;-97.118;2022-08-04T13:29:36;11.82;;;3.67;;
17773;SDS011;9011;33.236;-97.118;2022-08-04T13:32:07;12.02;;;3.60;;
17773;SDS011;9011;33.236;-97.118;2022-08-04T13:34:39;10.77;;;3.72;;
17773;SDS011;9011;33.236;-97.118;2022-08-04T13:37:08;10.52;;;3.50;;
17773;SDS011;9011;33.236;-97.118;2022-08-04T13:39:42;11.07;;;3.50;;
17773;SDS011;9011;33.236;-97.118;2022-08-04T13:42:11;11.48;;;4.38;;
17773;SDS011;9011;33.236;-97.118;2022-08-04T13:44:43;14.18;;;3.38;;
17773;SDS011;9011;33.236;-97.118;2022-08-04T13:47:18;9.13;;;4.38;;
17773;SDS011;9011;33.236;-97.118;2022-08-04T13:50:10;8.07;;;3.10;;
17773;SDS011;9011;33.236;-97.118;2022-08-04T13:52:42;12.52;;;3.97;;
17773;SDS011;9011;33.236;-97.118;2022-08-04T13:55:18;6.85;;;3.55;;
17773;SDS011;9011;33.236;-97.118;2022-08-04T13:57:49;11.55;;;3.97;;
17773;SDS011;9011;33.236;-97.118;2022-08-04T14:00:22;11.68;;;3.97;;
17773;SDS011;9011;33.236;-97.118;2022-08-04T14:02:59;13.82;;;4.28;;
17773;SDS011;9011;33.236;-97.118;2022-08-04T14:05:29;10.23;;;3.92;;
17773;SDS011;9011;33.236;-97.118;2022-08-04T14:07:59;14.18;;;4.70;;
17773;SDS011;9011;33.236;-97.118;2022-08-04T14:10:33;13.02;;;3.70;;
17773;SDS011;9011;33.236;-97.118;2022-08-04T14:13:03;14.38;;;4.05;;
17773;SDS011;9011;33.236;-97.118;2022-08-04T14:15:33;11.27;;;3.75;;
17773;SDS011;9011;33.236;-97.118;2022-08-04T14:18:19;12.15;;;4.20;;
17773;SDS011;9011;33.236;-97.118;2022-08-04T14:21:02;12.48;;;3.95;;
17773;SDS011;9011;33.236;-97.118;2022-08-04T14:23:40;13.52;;;4.18;;
17773;SDS011;9011;33.236;-97.118;2022-08-04T14:26:20;13.98;;;4.40;;
17773;SDS011;9011;33.236;-97.118;2022-08-04T14:28:51;10.77;;;3.72;;
17773;SDS011;9011;33.236;-97.118;2022-08-04T14:31:22;12.65;;;3.90;;
17773;SDS011;9011;33.236;-97.118;2022-08-04T14:33:53;7.22;;;3.35;;
17773;SDS011;9011;33.236;-97.118;2022-08-04T14:36:22;14.75;;;4.05;;
17773;SDS011;9011;33.236;-97.118;2022-08-04T14:38:51;11.95;;;4.35;;
17773;SDS011;9011;33.236;-97.118;2022-08-04T14:41:22;14.23;;;4.15;;
17773;SDS011;9011;33.236;-97.118;2022-08-04T14:43:52;13.52;;;4.13;;
17773;SDS011;9011;33.236;-97.118;2022-08-04T14:46:24;11.73;;;4.10;;
17773;SDS011;9011;33.236;-97.118;2022-08-04T14:49:02;10.25;;;3.88;;
17773;SDS011;9011;33.236;-97.118;2022-08-04T14:51:33;13.57;;;3.95;;
17773;SDS011;9011;33.236;-97.118;2022-08-04T14:54:03;13.43;;;4.30;;
17773;SDS011;9011;33.236;-97.118;2022-08-04T14:56:32;9.95;;;3.80;;
17773;SDS011;9011;33.236;-97.118;2022-08-04T14:59:02;10.40;;;3.85;;
17773;SDS011;9011;33.236;-97.118;2022-08-04T15:01:31;16.27;;;4.15;;
17773;SDS011;9011;33.236;-97.118;2022-08-04T15:04:02;8.75;;;3.28;;
17773;SDS011;9011;33.236;-97.118;2022-08-04T15:06:32;10.20;;;4.15;;
17773;SDS011;9011;33.236;-97.118;2022-08-04T15:09:02;12.25;;;3.78;;
17773;SDS011;9011;33.236;-97.118;2022-08-04T15:11:33;10.75;;;3.63;;
17773;SDS011;9011;33.236;-97.118;2022-08-04T15:14:02;14.82;;;4.75;;
17773;SDS011;9011;33.236;-97.118;2022-08-04T15:16:32;9.63;;;4.13;;
17773;SDS011;9011;33.236;-97.118;2022-08-04T15:19:02;13.60;;;3.58;;
17773;SDS011;9011;33.236;-97.118;2022-08-04T15:21:30;10.98;;;3.80;;
17773;SDS011;9011;33.236;-97.118;2022-08-04T15:23:59;13.23;;;4.05;;
17773;SDS011;9011;33.236;-97.118;2022-08-04T15:26:31;7.50;;;3.60;;
17773;SDS011;9011;33.236;-97.118;2022-08-04T15:29:07;11.07;;;3.97;;
17773;SDS011;9011;33.236;-97.118;2022-08-04T15:31:40;13.98;;;4.20;;
17773;SDS011;9011;33.236;-97.118;2022-08-04T15:34:11;12.13;;;3.63;;
17773;SDS011;9011;33.236;-97.118;2022-08-04T15:36:46;15.60;;;4.07;;
17773;SDS011;9011;33.236;-97.118;2022-08-04T15:39:23;12.35;;;3.90;;
17773;SDS011;9011;33.236;-97.118;2022-08-04T15:42:05;8.77;;;3.50;;
17773;SDS011;9011;33.236;-97.118;2022-08-04T15:47:38;8.38;;;3.85;;
17773;SDS011;9011;33.236;-97.118;2022-08-04T15:50:09;9.57;;;4.25;;
17773;SDS011;9011;33.236;-97.118;2022-08-04T15:55:30;10.15;;;4.13;;